createdAt,value
2022-10-09T00:03:23.187Z,7.90
2022-10-09T00:08:27.581Z,7.65
2022-10-09T00:13:30.291Z,7.60
2022-10-09T00:18:33.347Z,7.97
2022-10-09T00:23:37.507Z,7.15
2022-10-09T00:28:40.306Z,7.75
2022-10-09T00:33:43.593Z,7.05
2022-10-09T00:38:48.039Z,6.45
2022-10-09T00:43:53.950Z,7.53
2022-10-09T00:49:05.195Z,7.53
2022-10-09T00:54:13.013Z,6.88
2022-10-09T00:59:16.564Z,8.38
2022-10-09T01:04:19.341Z,7.15
2022-10-09T01:09:28.687Z,6.35
2022-10-09T01:14:37.554Z,7.68
2022-10-09T01:20:04.497Z,7.25
2022-10-09T01:25:10.273Z,6.75
2022-10-09T01:30:14.729Z,6.95
2022-10-09T01:35:19.049Z,7.57
2022-10-09T01:40:22.937Z,5.88
2022-10-09T01:45:36.891Z,5.55
2022-10-09T01:50:44.279Z,4.85
2022-10-09T01:55:52.140Z,6.07
2022-10-09T02:01:03.504Z,5.65
2022-10-09T02:06:08.893Z,6.22
2022-10-09T02:11:12.222Z,5.18
2022-10-09T02:16:22.147Z,5.90
2022-10-09T02:21:30.850Z,5.15
2022-10-09T02:26:33.773Z,3.97
2022-10-09T02:31:40.004Z,4.53
2022-10-09T02:36:42.773Z,5.18
2022-10-09T02:41:45.493Z,4.78
2022-10-09T02:46:49.614Z,5.03
2022-10-09T02:51:52.734Z,5.15
2022-10-09T02:56:55.409Z,5.40
2022-10-09T03:01:59.702Z,4.50
2022-10-09T03:07:03.151Z,5.07
2022-10-09T03:12:06.382Z,5.55
2022-10-09T03:17:10.430Z,4.80
2022-10-09T03:22:13.141Z,4.97
2022-10-09T03:27:15.830Z,4.40
2022-10-09T03:32:20.782Z,5.47
2022-10-09T03:37:23.603Z,4.60
2022-10-09T03:42:26.450Z,4.50
2022-10-09T03:47:30.784Z,3.95
2022-10-09T03:52:33.535Z,4.18
2022-10-09T03:57:37.017Z,5.85
2022-10-09T04:02:41.283Z,5.88
2022-10-09T04:07:44.144Z,7.30
2022-10-09T04:12:47.164Z,7.20
2022-10-09T04:17:51.580Z,7.60
2022-10-09T04:22:54.303Z,7.88
2022-10-09T04:27:56.985Z,8.10
2022-10-09T04:33:01.084Z,6.40
2022-10-09T04:38:03.841Z,7.15
2022-10-09T04:43:06.684Z,7.85
2022-10-09T04:48:10.793Z,5.70
2022-10-09T04:53:13.763Z,6.57
2022-10-09T04:58:16.495Z,6.18
2022-10-09T05:03:20.678Z,5.13
2022-10-09T05:08:23.449Z,5.90
2022-10-09T05:13:26.439Z,5.28
2022-10-09T05:18:31.829Z,7.32
2022-10-09T05:23:35.595Z,7.28
2022-10-09T05:28:38.897Z,10.30
2022-10-09T05:33:43.227Z,8.05
2022-10-09T05:38:46.149Z,9.43
2022-10-09T05:43:50.347Z,31.30
2022-10-09T05:48:56.454Z,20.60
2022-10-09T05:54:02.142Z,4.85
2022-10-09T05:59:06.678Z,5.38
2022-10-09T06:04:15.123Z,9.10
2022-10-09T06:09:19.690Z,6.47
2022-10-09T06:19:52.795Z,10.13
2022-10-09T06:24:55.482Z,9.60
2022-10-09T06:29:58.856Z,8.50
2022-10-09T06:35:02.982Z,8.40
2022-10-09T06:40:06.597Z,5.47
2022-10-09T06:45:10.526Z,6.63
2022-10-09T06:50:16.105Z,6.82
2022-10-09T06:55:18.882Z,6.43
2022-10-09T07:00:21.671Z,9.02
2022-10-09T07:05:25.787Z,8.77
2022-10-09T07:10:28.759Z,8.73
2022-10-09T07:15:31.802Z,15.13
2022-10-09T07:20:37.491Z,10.48
2022-10-09T07:25:40.217Z,8.15
2022-10-09T07:30:43.631Z,6.47
2022-10-09T07:35:55.259Z,6.53
2022-10-09T07:41:01.032Z,7.70
2022-10-09T07:46:04.990Z,7.28
2022-10-09T07:51:10.915Z,6.38
2022-10-09T07:56:18.501Z,5.55
2022-10-09T08:01:22.111Z,6.20
2022-10-09T08:06:27.687Z,8.50
2022-10-09T08:11:31.202Z,4.57
2022-10-09T08:16:33.969Z,4.35
2022-10-09T08:21:38.207Z,4.70
2022-10-09T08:26:40.980Z,7.45
2022-10-09T08:31:43.793Z,4.55
2022-10-09T08:36:48.143Z,4.53
2022-10-09T08:41:53.794Z,4.28
2022-10-09T08:47:08.345Z,4.97
2022-10-09T08:52:25.631Z,4.82
2022-10-09T09:02:48.673Z,4.10
2022-10-09T09:08:02.185Z,5.57
2022-10-09T09:13:20.383Z,3.30
2022-10-09T09:18:40.721Z,3.15
2022-10-09T09:23:48.673Z,3.45
2022-10-09T09:28:56.590Z,3.20
2022-10-09T09:34:04.292Z,3.05
2022-10-09T09:49:38.668Z,2.80
2022-10-09T09:54:49.743Z,2.95
2022-10-09T09:59:52.577Z,2.65
2022-10-09T10:04:59.653Z,2.88
2022-10-09T10:10:05.841Z,2.88
2022-10-09T10:15:18.750Z,3.63
2022-10-09T10:20:21.899Z,2.47
2022-10-09T10:25:30.721Z,2.90
2022-10-09T10:30:36.462Z,3.03
2022-10-09T10:35:42.333Z,2.65
2022-10-09T10:40:51.843Z,2.60
2022-10-09T10:46:03.607Z,3.05
2022-10-09T10:51:17.449Z,2.95
2022-10-09T10:56:29.441Z,2.53
2022-10-09T11:01:42.620Z,2.47
2022-10-09T11:06:54.500Z,2.35
2022-10-09T11:12:15.573Z,2.78
2022-10-09T11:17:33.949Z,2.15
2022-10-09T11:22:59.170Z,1.75
2022-10-09T11:28:08.473Z,2.13
2022-10-09T11:33:27.699Z,2.33
2022-10-09T11:38:36.155Z,2.83
2022-10-09T11:44:14.639Z,2.45
2022-10-09T11:49:26.144Z,1.90
2022-10-09T11:54:30.297Z,2.17
2022-10-09T11:59:36.279Z,2.53
2022-10-09T12:04:54.358Z,2.00
2022-10-09T12:10:06.108Z,1.40
2022-10-09T12:15:25.599Z,2.30
2022-10-09T12:20:30.166Z,2.30
2022-10-09T12:25:41.576Z,1.90
2022-10-09T12:30:49.613Z,2.08
2022-10-09T12:36:04.600Z,1.38
2022-10-09T12:41:19.333Z,1.88
2022-10-09T12:46:34.559Z,1.03
2022-10-09T12:51:38.750Z,1.20
2022-10-09T12:56:41.531Z,1.55
2022-10-09T13:01:45.332Z,1.90
2022-10-09T13:06:52.361Z,1.80
2022-10-09T13:12:00.199Z,2.17
2022-10-09T13:17:04.349Z,2.13
2022-10-09T13:22:19.489Z,1.65
2022-10-09T13:27:25.037Z,1.77
2022-10-09T13:32:28.220Z,2.15
2022-10-09T13:37:32.493Z,2.53
2022-10-09T13:42:37.972Z,1.77
2022-10-09T13:47:40.706Z,1.95
2022-10-09T13:52:44.919Z,2.47
2022-10-09T13:57:49.109Z,1.73
2022-10-09T14:02:52.405Z,2.15
2022-10-09T14:07:56.679Z,2.35
2022-10-09T14:12:59.396Z,1.48
2022-10-09T14:18:02.164Z,1.98
2022-10-09T14:23:06.266Z,1.73
2022-10-09T14:28:09.461Z,2.13
2022-10-09T14:33:12.570Z,1.35
2022-10-09T14:38:16.681Z,1.67
2022-10-09T14:43:20.028Z,1.75
2022-10-09T14:48:22.799Z,2.13
2022-10-09T14:53:26.944Z,1.67
2022-10-09T14:58:31.270Z,2.50
2022-10-09T15:03:35.657Z,1.88
2022-10-09T15:08:41.787Z,2.33
2022-10-09T15:13:44.507Z,1.50
2022-10-09T15:18:49.466Z,1.73
2022-10-09T15:23:54.816Z,2.35
2022-10-09T15:28:58.002Z,1.75
2022-10-09T15:34:03.219Z,2.30
2022-10-09T15:39:08.892Z,2.38
2022-10-09T15:44:16.230Z,1.90
2022-10-09T15:54:23.831Z,1.33
2022-10-09T15:59:27.367Z,3.90
2022-10-09T16:04:55.841Z,3.58
2022-10-09T16:09:59.924Z,3.55
2022-10-09T16:15:03.373Z,2.30
2022-10-09T16:20:07.476Z,2.88
2022-10-09T16:25:12.471Z,2.58
2022-10-09T16:30:15.378Z,3.05
2022-10-09T16:35:18.257Z,4.15
2022-10-09T16:40:32.691Z,4.28
2022-10-09T16:45:45.071Z,3.10
2022-10-09T16:50:47.794Z,6.82
2022-10-09T16:55:52.348Z,6.00
2022-10-09T17:01:04.911Z,3.17
2022-10-09T17:06:12.649Z,4.40
2022-10-09T17:11:17.862Z,7.45
2022-10-09T17:16:22.746Z,6.45
2022-10-09T17:21:29.258Z,10.43
2022-10-09T17:26:39.310Z,6.20
2022-10-09T17:31:42.334Z,2.78
2022-10-09T17:36:46.065Z,2.45
2022-10-09T17:41:50.338Z,2.28
2022-10-09T17:46:53.051Z,2.22
2022-10-09T17:51:56.439Z,2.45
2022-10-09T17:57:02.203Z,2.63
2022-10-09T18:02:05.652Z,2.35
2022-10-09T18:07:08.429Z,3.08
2022-10-09T18:12:12.694Z,4.43
2022-10-09T18:17:15.585Z,5.78
2022-10-09T18:22:18.826Z,4.85
2022-10-09T18:27:23.838Z,5.95
2022-10-09T18:32:26.788Z,5.80
2022-10-09T18:37:29.757Z,5.95
2022-10-09T18:42:33.997Z,6.25
2022-10-09T18:47:36.988Z,6.45
2022-10-09T18:52:42.398Z,5.97
2022-10-09T18:57:48.054Z,6.43
2022-10-09T19:02:51.509Z,6.40
2022-10-09T19:07:55.523Z,8.32
2022-10-09T19:12:59.607Z,7.68
2022-10-09T19:18:03.513Z,8.82
2022-10-09T19:23:06.444Z,8.40
2022-10-09T19:28:10.587Z,6.38
2022-10-09T19:33:13.743Z,6.13
2022-10-09T19:38:17.607Z,5.57
2022-10-09T19:43:23.490Z,4.90
2022-10-09T19:48:26.383Z,5.47
2022-10-09T19:53:29.386Z,4.68
2022-10-09T19:58:33.476Z,4.25
2022-10-09T20:03:36.242Z,4.47
2022-10-09T20:08:40.931Z,4.32
2022-10-09T20:13:45.041Z,3.80
2022-10-09T20:18:47.850Z,4.13
2022-10-09T20:23:50.749Z,3.83
2022-10-09T20:28:54.958Z,4.53
2022-10-09T20:33:57.666Z,3.35
2022-10-09T20:39:03.492Z,4.03
2022-10-09T20:44:07.944Z,3.67
2022-10-09T20:49:13.362Z,3.95
2022-10-09T20:54:18.405Z,3.70
2022-10-09T20:59:22.873Z,3.60
2022-10-09T21:04:25.852Z,6.45
2022-10-09T21:09:32.976Z,6.70
2022-10-09T21:14:37.708Z,17.60
2022-10-09T21:19:40.437Z,7.18
2022-10-09T21:24:43.278Z,6.88
2022-10-09T21:29:47.451Z,6.07
2022-10-09T21:34:50.561Z,6.75
2022-10-09T21:39:53.367Z,4.68
2022-10-09T21:44:57.609Z,6.22
2022-10-09T21:50:00.416Z,4.47
2022-10-09T21:55:04.366Z,4.85
2022-10-09T22:00:10.023Z,4.60
2022-10-09T22:05:12.801Z,4.25
2022-10-09T22:10:15.629Z,4.80
2022-10-09T22:15:19.967Z,5.22
2022-10-09T22:20:22.713Z,4.45
2022-10-09T22:25:25.431Z,4.22
2022-10-09T22:31:04.076Z,6.38
2022-10-09T22:36:09.182Z,6.20
2022-10-09T22:41:14.496Z,5.18
2022-10-09T22:46:20.755Z,6.20
2022-10-09T22:51:25.507Z,6.47
2022-10-09T22:56:31.346Z,5.50
2022-10-09T23:01:39.386Z,7.15
2022-10-09T23:06:43.308Z,6.57
2022-10-09T23:11:46.097Z,6.68
2022-10-09T23:16:50.519Z,6.05
2022-10-09T23:21:53.685Z,5.35
2022-10-09T23:26:56.422Z,4.55
2022-10-09T23:32:00.533Z,4.50
2022-10-09T23:37:03.765Z,4.50
2022-10-09T23:42:06.560Z,4.40
2022-10-09T23:47:10.612Z,4.50
2022-10-09T23:52:13.332Z,4.10
2022-10-09T23:57:16.089Z,5.20
